sensor_id;sensor_type;location;lat;lon;timestamp;P1;durP1;ratioP1;P2;durP2;ratioP2
4049;SDS011;2039;50.894;6.888;2023-05-07T03:20:04;74.53;;;25.63;;
4049;SDS011;2039;50.894;6.888;2023-05-07T03:22:30;75.20;;;25.17;;
4049;SDS011;2039;50.894;6.888;2023-05-07T03:24:56;73.20;;;20.37;;
4049;SDS011;2039;50.894;6.888;2023-05-07T03:27:22;73.33;;;21.17;;
4049;SDS011;2039;50.894;6.888;2023-05-07T03:29:48;76.20;;;22.17;;
4049;SDS011;2039;50.894;6.888;2023-05-07T03:32:13;72.27;;;17.87;;
4049;SDS011;2039;50.894;6.888;2023-05-07T03:34:39;73.77;;;21.97;;
4049;SDS011;2039;50.894;6.888;2023-05-07T03:37:05;73.27;;;21.50;;
4049;SDS011;2039;50.894;6.888;2023-05-07T03:39:31;72.00;;;18.27;;
4049;SDS011;2039;50.894;6.888;2023-05-07T03:41:57;75.43;;;23.30;;
4049;SDS011;2039;50.894;6.888;2023-05-07T03:44:23;73.37;;;18.20;;
4049;SDS011;2039;50.894;6.888;2023-05-07T03:46:48;72.97;;;19.97;;
4049;SDS011;2039;50.894;6.888;2023-05-07T03:49:14;71.87;;;17.93;;
4049;SDS011;2039;50.894;6.888;2023-05-07T03:51:40;72.90;;;19.00;;
4049;SDS011;2039;50.894;6.888;2023-05-07T03:54:08;71.87;;;17.43;;
4049;SDS011;2039;50.894;6.888;2023-05-07T03:56:34;72.17;;;16.47;;
4049;SDS011;2039;50.894;6.888;2023-05-07T03:59:02;71.00;;;17.97;;
4049;SDS011;2039;50.894;6.888;2023-05-07T04:01:28;71.43;;;17.20;;
4049;SDS011;2039;50.894;6.888;2023-05-07T04:03:54;69.27;;;14.77;;
4049;SDS011;2039;50.894;6.888;2023-05-07T04:06:20;69.17;;;13.07;;
4049;SDS011;2039;50.894;6.888;2023-05-07T04:08:46;69.87;;;15.27;;
4049;SDS011;2039;50.894;6.888;2023-05-07T04:11:12;73.57;;;15.70;;
4049;SDS011;2039;50.894;6.888;2023-05-07T04:13:37;72.23;;;18.07;;
4049;SDS011;2039;50.894;6.888;2023-05-07T04:18:36;71.40;;;18.20;;
4049;SDS011;2039;50.894;6.888;2023-05-07T04:21:02;76.10;;;19.00;;
4049;SDS011;2039;50.894;6.888;2023-05-07T04:23:31;71.20;;;18.10;;
4049;SDS011;2039;50.894;6.888;2023-05-07T04:25:57;73.23;;;19.33;;
4049;SDS011;2039;50.894;6.888;2023-05-07T04:28:23;76.00;;;22.00;;
4049;SDS011;2039;50.894;6.888;2023-05-07T04:30:49;75.57;;;21.17;;
4049;SDS011;2039;50.894;6.888;2023-05-07T04:33:15;74.27;;;21.67;;
4049;SDS011;2039;50.894;6.888;2023-05-07T04:35:46;75.73;;;27.97;;
4049;SDS011;2039;50.894;6.888;2023-05-07T04:38:12;77.60;;;34.77;;
4049;SDS011;2039;50.894;6.888;2023-05-07T04:40:38;76.00;;;30.50;;
4049;SDS011;2039;50.894;6.888;2023-05-07T04:43:04;74.27;;;27.60;;
4049;SDS011;2039;50.894;6.888;2023-05-07T04:45:32;74.90;;;25.60;;
4049;SDS011;2039;50.894;6.888;2023-05-07T04:47:58;74.17;;;23.90;;
4049;SDS011;2039;50.894;6.888;2023-05-07T04:50:24;73.07;;;22.77;;
4049;SDS011;2039;50.894;6.888;2023-05-07T04:52:50;72.77;;;22.37;;
4049;SDS011;2039;50.894;6.888;2023-05-07T04:55:15;72.67;;;20.87;;
4049;SDS011;2039;50.894;6.888;2023-05-07T04:57:41;73.13;;;19.47;;
4049;SDS011;2039;50.894;6.888;2023-05-07T05:00:07;74.57;;;23.27;;
4049;SDS011;2039;50.894;6.888;2023-05-07T05:02:34;71.50;;;20.00;;
4049;SDS011;2039;50.894;6.888;2023-05-07T05:05:00;73.50;;;23.97;;
4049;SDS011;2039;50.894;6.888;2023-05-07T05:07:27;72.17;;;20.77;;
4049;SDS011;2039;50.894;6.888;2023-05-07T05:09:53;72.10;;;20.33;;
4049;SDS011;2039;50.894;6.888;2023-05-07T05:12:20;73.97;;;20.80;;
4049;SDS011;2039;50.894;6.888;2023-05-07T05:14:46;73.10;;;21.37;;
4049;SDS011;2039;50.894;6.888;2023-05-07T05:17:12;75.47;;;22.50;;
4049;SDS011;2039;50.894;6.888;2023-05-07T05:19:37;72.13;;;21.90;;
4049;SDS011;2039;50.894;6.888;2023-05-07T05:22:03;76.17;;;20.47;;
4049;SDS011;2039;50.894;6.888;2023-05-07T05:24:31;74.17;;;22.40;;
4049;SDS011;2039;50.894;6.888;2023-05-07T05:26:57;71.93;;;20.37;;
4049;SDS011;2039;50.894;6.888;2023-05-07T05:29:26;74.00;;;21.47;;
4049;SDS011;2039;50.894;6.888;2023-05-07T05:31:54;73.10;;;17.37;;
4049;SDS011;2039;50.894;6.888;2023-05-07T05:34:20;74.17;;;21.43;;
4049;SDS011;2039;50.894;6.888;2023-05-07T05:36:47;71.37;;;17.83;;
4049;SDS011;2039;50.894;6.888;2023-05-07T05:39:22;75.90;;;21.67;;
4049;SDS011;2039;50.894;6.888;2023-05-07T05:41:51;70.97;;;19.20;;
4049;SDS011;2039;50.894;6.888;2023-05-07T05:44:16;72.00;;;19.03;;
4049;SDS011;2039;50.894;6.888;2023-05-07T05:46:42;71.80;;;17.03;;
4049;SDS011;2039;50.894;6.888;2023-05-07T05:49:08;70.97;;;18.90;;
4049;SDS011;2039;50.894;6.888;2023-05-07T05:51:34;71.97;;;17.93;;
4049;SDS011;2039;50.894;6.888;2023-05-07T05:53:59;70.53;;;20.00;;
4049;SDS011;2039;50.894;6.888;2023-05-07T05:56:25;69.63;;;16.57;;
4049;SDS011;2039;50.894;6.888;2023-05-07T05:58:51;69.97;;;18.07;;
4049;SDS011;2039;50.894;6.888;2023-05-07T06:01:17;72.13;;;20.17;;
4049;SDS011;2039;50.894;6.888;2023-05-07T06:03:43;69.67;;;17.93;;
4049;SDS011;2039;50.894;6.888;2023-05-07T06:06:12;70.37;;;18.60;;
4049;SDS011;2039;50.894;6.888;2023-05-07T06:08:41;71.00;;;18.70;;
4049;SDS011;2039;50.894;6.888;2023-05-07T06:11:10;72.17;;;23.10;;
4049;SDS011;2039;50.894;6.888;2023-05-07T06:13:35;71.97;;;20.97;;
4049;SDS011;2039;50.894;6.888;2023-05-07T06:16:01;71.83;;;19.10;;
4049;SDS011;2039;50.894;6.888;2023-05-07T06:18:27;72.20;;;20.27;;
4049;SDS011;2039;50.894;6.888;2023-05-07T06:20:53;71.20;;;20.87;;
4049;SDS011;2039;50.894;6.888;2023-05-07T06:23:18;73.07;;;20.10;;
4049;SDS011;2039;50.894;6.888;2023-05-07T06:25:50;71.07;;;21.17;;
4049;SDS011;2039;50.894;6.888;2023-05-07T06:28:16;70.20;;;17.77;;
4049;SDS011;2039;50.894;6.888;2023-05-07T06:30:42;72.27;;;21.30;;
4049;SDS011;2039;50.894;6.888;2023-05-07T06:33:10;73.27;;;18.80;;
4049;SDS011;2039;50.894;6.888;2023-05-07T06:35:36;70.90;;;17.90;;
4049;SDS011;2039;50.894;6.888;2023-05-07T06:38:01;71.10;;;13.77;;
4049;SDS011;2039;50.894;6.888;2023-05-07T06:40:27;68.20;;;11.77;;
4049;SDS011;2039;50.894;6.888;2023-05-07T06:42:53;68.13;;;9.80;;
4049;SDS011;2039;50.894;6.888;2023-05-07T06:45:21;68.17;;;10.87;;
4049;SDS011;2039;50.894;6.888;2023-05-07T06:47:47;68.30;;;11.80;;
4049;SDS011;2039;50.894;6.888;2023-05-07T06:50:13;68.10;;;10.63;;
4049;SDS011;2039;50.894;6.888;2023-05-07T06:52:41;67.97;;;9.10;;
4049;SDS011;2039;50.894;6.888;2023-05-07T06:55:09;66.17;;;7.57;;
4049;SDS011;2039;50.894;6.888;2023-05-07T06:57:36;67.10;;;8.50;;
4049;SDS011;2039;50.894;6.888;2023-05-07T07:00:02;67.00;;;8.77;;
4049;SDS011;2039;50.894;6.888;2023-05-07T07:02:31;68.00;;;7.60;;
4049;SDS011;2039;50.894;6.888;2023-05-07T07:04:57;65.97;;;4.87;;
4049;SDS011;2039;50.894;6.888;2023-05-07T07:07:23;65.30;;;4.40;;
4049;SDS011;2039;50.894;6.888;2023-05-07T07:09:49;65.30;;;4.30;;
4049;SDS011;2039;50.894;6.888;2023-05-07T07:12:15;67.03;;;4.40;;
4049;SDS011;2039;50.894;6.888;2023-05-07T07:14:43;65.93;;;4.97;;
4049;SDS011;2039;50.894;6.888;2023-05-07T07:17:09;66.70;;;4.50;;
4049;SDS011;2039;50.894;6.888;2023-05-07T07:19:35;67.03;;;4.97;;
4049;SDS011;2039;50.894;6.888;2023-05-07T07:22:01;64.97;;;4.03;;
4049;SDS011;2039;50.894;6.888;2023-05-07T07:24:26;66.63;;;4.10;;
4049;SDS011;2039;50.894;6.888;2023-05-07T07:26:52;67.03;;;4.50;;
4049;SDS011;2039;50.894;6.888;2023-05-07T07:29:18;67.20;;;4.77;;
4049;SDS011;2039;50.894;6.888;2023-05-07T07:31:44;65.70;;;5.20;;
4049;SDS011;2039;50.894;6.888;2023-05-07T07:34:12;66.27;;;4.80;;
4049;SDS011;2039;50.894;6.888;2023-05-07T07:36:37;68.77;;;5.00;;
4049;SDS011;2039;50.894;6.888;2023-05-07T07:39:03;72.13;;;5.33;;
4049;SDS011;2039;50.894;6.888;2023-05-07T07:41:29;67.70;;;5.17;;
4049;SDS011;2039;50.894;6.888;2023-05-07T07:43:54;68.60;;;4.73;;
4049;SDS011;2039;50.894;6.888;2023-05-07T07:46:20;64.40;;;4.37;;
4049;SDS011;2039;50.894;6.888;2023-05-07T07:51:14;67.23;;;5.73;;
4049;SDS011;2039;50.894;6.888;2023-05-07T07:53:39;65.93;;;5.33;;
4049;SDS011;2039;50.894;6.888;2023-05-07T07:56:06;67.20;;;4.73;;
4049;SDS011;2039;50.894;6.888;2023-05-07T07:58:34;66.13;;;5.77;;
4049;SDS011;2039;50.894;6.888;2023-05-07T08:01:01;65.97;;;6.10;;
4049;SDS011;2039;50.894;6.888;2023-05-07T08:03:27;66.10;;;6.03;;
4049;SDS011;2039;50.894;6.888;2023-05-07T08:05:53;69.87;;;6.77;;
4049;SDS011;2039;50.894;6.888;2023-05-07T08:08:19;68.90;;;8.53;;
4049;SDS011;2039;50.894;6.888;2023-05-07T08:10:44;67.30;;;6.40;;
4049;SDS011;2039;50.894;6.888;2023-05-07T08:13:10;70.40;;;7.80;;
4049;SDS011;2039;50.894;6.888;2023-05-07T08:15:36;69.10;;;7.70;;
4049;SDS011;2039;50.894;6.888;2023-05-07T08:18:02;66.90;;;7.93;;
4049;SDS011;2039;50.894;6.888;2023-05-07T08:20:30;66.67;;;6.23;;
4049;SDS011;2039;50.894;6.888;2023-05-07T08:22:56;66.37;;;7.13;;
4049;SDS011;2039;50.894;6.888;2023-05-07T08:25:22;67.00;;;7.20;;
4049;SDS011;2039;50.894;6.888;2023-05-07T08:27:48;66.97;;;7.20;;
4049;SDS011;2039;50.894;6.888;2023-05-07T08:30:13;65.87;;;6.07;;
4049;SDS011;2039;50.894;6.888;2023-05-07T08:32:39;68.13;;;5.77;;
4049;SDS011;2039;50.894;6.888;2023-05-07T08:35:05;67.30;;;5.50;;
4049;SDS011;2039;50.894;6.888;2023-05-07T08:37:31;66.40;;;5.87;;
4049;SDS011;2039;50.894;6.888;2023-05-07T08:39:57;65.20;;;4.37;;
4049;SDS011;2039;50.894;6.888;2023-05-07T08:42:23;65.90;;;4.47;;
4049;SDS011;2039;50.894;6.888;2023-05-07T08:44:50;67.90;;;4.23;;
4049;SDS011;2039;50.894;6.888;2023-05-07T08:47:20;66.40;;;4.50;;
4049;SDS011;2039;50.894;6.888;2023-05-07T08:49:48;65.93;;;4.40;;
4049;SDS011;2039;50.894;6.888;2023-05-07T08:52:14;65.37;;;4.77;;
4049;SDS011;2039;50.894;6.888;2023-05-07T08:54:40;68.00;;;5.20;;
4049;SDS011;2039;50.894;6.888;2023-05-07T08:57:06;65.97;;;5.00;;
4049;SDS011;2039;50.894;6.888;2023-05-07T08:59:31;67.67;;;5.63;;
4049;SDS011;2039;50.894;6.888;2023-05-07T09:01:57;66.20;;;5.20;;
4049;SDS011;2039;50.894;6.888;2023-05-07T09:04:23;66.57;;;5.37;;
4049;SDS011;2039;50.894;6.888;2023-05-07T09:06:49;66.07;;;4.50;;
4049;SDS011;2039;50.894;6.888;2023-05-07T09:09:16;66.00;;;4.87;;
4049;SDS011;2039;50.894;6.888;2023-05-07T09:11:43;67.37;;;5.30;;
4049;SDS011;2039;50.894;6.888;2023-05-07T09:14:09;69.83;;;5.10;;
4049;SDS011;2039;50.894;6.888;2023-05-07T09:16:35;66.07;;;4.80;;
4049;SDS011;2039;50.894;6.888;2023-05-07T09:19:00;65.90;;;4.77;;
4049;SDS011;2039;50.894;6.888;2023-05-07T09:21:26;66.47;;;4.90;;
4049;SDS011;2039;50.894;6.888;2023-05-07T09:24:41;65.07;;;4.40;;
4049;SDS011;2039;50.894;6.888;2023-05-07T09:27:49;65.07;;;3.60;;
4049;SDS011;2039;50.894;6.888;2023-05-07T09:30:33;67.20;;;5.67;;
4049;SDS011;2039;50.894;6.888;2023-05-07T09:33:05;65.03;;;4.50;;
4049;SDS011;2039;50.894;6.888;2023-05-07T09:35:37;66.07;;;5.50;;
4049;SDS011;2039;50.894;6.888;2023-05-07T09:38:21;66.70;;;4.63;;
4049;SDS011;2039;50.894;6.888;2023-05-07T09:41:10;67.37;;;6.00;;
4049;SDS011;2039;50.894;6.888;2023-05-07T09:43:39;66.17;;;5.20;;
4049;SDS011;2039;50.894;6.888;2023-05-07T09:46:25;65.77;;;6.00;;
4049;SDS011;2039;50.894;6.888;2023-05-07T09:49:23;66.23;;;8.47;;
4049;SDS011;2039;50.894;6.888;2023-05-07T09:52:06;68.17;;;8.30;;
4049;SDS011;2039;50.894;6.888;2023-05-07T09:54:38;67.93;;;11.97;;
4049;SDS011;2039;50.894;6.888;2023-05-07T09:57:25;65.87;;;5.40;;
4049;SDS011;2039;50.894;6.888;2023-05-07T09:59:52;66.97;;;7.23;;
4049;SDS011;2039;50.894;6.888;2023-05-07T10:02:20;67.17;;;9.10;;
4049;SDS011;2039;50.894;6.888;2023-05-07T10:04:48;67.77;;;11.00;;
4049;SDS011;2039;50.894;6.888;2023-05-07T10:07:23;69.30;;;13.93;;
4049;SDS011;2039;50.894;6.888;2023-05-07T10:09:53;74.60;;;20.53;;
4049;SDS011;2039;50.894;6.888;2023-05-07T10:12:20;68.83;;;13.93;;
4049;SDS011;2039;50.894;6.888;2023-05-07T10:14:46;68.80;;;12.23;;
4049;SDS011;2039;50.894;6.888;2023-05-07T10:17:16;70.30;;;18.40;;
4049;SDS011;2039;50.894;6.888;2023-05-07T10:19:56;68.60;;;13.33;;
4049;SDS011;2039;50.894;6.888;2023-05-07T10:22:22;67.67;;;7.97;;
4049;SDS011;2039;50.894;6.888;2023-05-07T10:24:53;66.37;;;5.73;;
4049;SDS011;2039;50.894;6.888;2023-05-07T10:27:21;65.73;;;5.70;;
4049;SDS011;2039;50.894;6.888;2023-05-07T10:30:01;67.17;;;5.20;;
4049;SDS011;2039;50.894;6.888;2023-05-07T10:32:47;66.60;;;4.70;;
4049;SDS011;2039;50.894;6.888;2023-05-07T10:35:20;66.87;;;4.73;;
4049;SDS011;2039;50.894;6.888;2023-05-07T10:37:49;66.17;;;5.30;;
4049;SDS011;2039;50.894;6.888;2023-05-07T10:40:15;67.73;;;7.70;;
4049;SDS011;2039;50.894;6.888;2023-05-07T10:42:58;67.70;;;7.47;;
4049;SDS011;2039;50.894;6.888;2023-05-07T10:45:26;67.97;;;7.90;;
4049;SDS011;2039;50.894;6.888;2023-05-07T10:48:15;67.13;;;9.13;;
4049;SDS011;2039;50.894;6.888;2023-05-07T10:50:43;67.50;;;8.20;;
4049;SDS011;2039;50.894;6.888;2023-05-07T10:55:43;70.00;;;8.40;;
4049;SDS011;2039;50.894;6.888;2023-05-07T11:00:48;67.30;;;10.17;;
4049;SDS011;2039;50.894;6.888;2023-05-07T11:03:19;67.37;;;8.57;;
4049;SDS011;2039;50.894;6.888;2023-05-07T11:05:49;66.47;;;3.60;;
4049;SDS011;2039;50.894;6.888;2023-05-07T11:08:57;65.20;;;3.17;;
4049;SDS011;2039;50.894;6.888;2023-05-07T11:17:08;67.37;;;5.70;;
4049;SDS011;2039;50.894;6.888;2023-05-07T11:25:01;66.33;;;4.43;;
4049;SDS011;2039;50.894;6.888;2023-05-07T11:27:31;68.60;;;5.93;;
4049;SDS011;2039;50.894;6.888;2023-05-07T11:29:57;69.73;;;9.40;;
4049;SDS011;2039;50.894;6.888;2023-05-07T11:32:27;68.87;;;7.53;;
4049;SDS011;2039;50.894;6.888;2023-05-07T11:34:54;68.50;;;9.20;;
4049;SDS011;2039;50.894;6.888;2023-05-07T11:37:21;68.60;;;8.70;;
4049;SDS011;2039;50.894;6.888;2023-05-07T11:39:47;68.87;;;9.20;;
4049;SDS011;2039;50.894;6.888;2023-05-07T11:42:29;72.00;;;10.00;;
4049;SDS011;2039;50.894;6.888;2023-05-07T11:44:56;71.20;;;8.43;;
4049;SDS011;2039;50.894;6.888;2023-05-07T11:47:29;67.60;;;7.97;;
4049;SDS011;2039;50.894;6.888;2023-05-07T11:50:03;67.97;;;7.67;;
4049;SDS011;2039;50.894;6.888;2023-05-07T11:52:32;70.07;;;7.40;;
4049;SDS011;2039;50.894;6.888;2023-05-07T11:54:59;66.93;;;5.10;;
4049;SDS011;2039;50.894;6.888;2023-05-07T11:57:29;68.67;;;8.10;;
4049;SDS011;2039;50.894;6.888;2023-05-07T11:59:55;70.50;;;9.10;;
4049;SDS011;2039;50.894;6.888;2023-05-07T12:02:22;71.40;;;9.63;;
4049;SDS011;2039;50.894;6.888;2023-05-07T12:04:51;68.17;;;7.43;;
4049;SDS011;2039;50.894;6.888;2023-05-07T12:07:17;67.27;;;6.63;;
4049;SDS011;2039;50.894;6.888;2023-05-07T12:09:43;69.53;;;8.77;;
4049;SDS011;2039;50.894;6.888;2023-05-07T12:12:10;67.57;;;7.90;;
4049;SDS011;2039;50.894;6.888;2023-05-07T12:14:40;68.37;;;6.93;;
4049;SDS011;2039;50.894;6.888;2023-05-07T12:17:07;67.10;;;7.33;;
4049;SDS011;2039;50.894;6.888;2023-05-07T12:19:37;66.70;;;5.87;;
4049;SDS011;2039;50.894;6.888;2023-05-07T12:22:04;69.00;;;8.60;;
4049;SDS011;2039;50.894;6.888;2023-05-07T12:24:48;68.63;;;9.27;;
4049;SDS011;2039;50.894;6.888;2023-05-07T12:27:18;68.70;;;7.73;;
4049;SDS011;2039;50.894;6.888;2023-05-07T12:29:46;68.80;;;8.00;;
4049;SDS011;2039;50.894;6.888;2023-05-07T12:32:13;67.57;;;7.80;;
4049;SDS011;2039;50.894;6.888;2023-05-07T12:34:43;69.40;;;9.40;;
4049;SDS011;2039;50.894;6.888;2023-05-07T12:37:12;67.90;;;7.83;;
4049;SDS011;2039;50.894;6.888;2023-05-07T12:39:48;67.67;;;6.57;;
4049;SDS011;2039;50.894;6.888;2023-05-07T12:42:25;66.90;;;8.13;;
4049;SDS011;2039;50.894;6.888;2023-05-07T12:44:51;68.30;;;7.60;;
4049;SDS011;2039;50.894;6.888;2023-05-07T12:47:20;66.97;;;7.67;;
4049;SDS011;2039;50.894;6.888;2023-05-07T12:49:49;67.80;;;6.17;;
4049;SDS011;2039;50.894;6.888;2023-05-07T12:52:19;66.30;;;3.30;;
4049;SDS011;2039;50.894;6.888;2023-05-07T12:58:32;67.60;;;3.60;;
4049;SDS011;2039;50.894;6.888;2023-05-07T13:04:41;66.40;;;5.00;;
4049;SDS011;2039;50.894;6.888;2023-05-07T13:18:39;66.30;;;3.93;;
4049;SDS011;2039;50.894;6.888;2023-05-07T13:25:09;68.60;;;10.37;;
4049;SDS011;2039;50.894;6.888;2023-05-07T13:28:04;68.97;;;12.00;;
4049;SDS011;2039;50.894;6.888;2023-05-07T13:30:47;68.17;;;10.00;;
4049;SDS011;2039;50.894;6.888;2023-05-07T13:33:19;69.20;;;8.30;;
4049;SDS011;2039;50.894;6.888;2023-05-07T13:35:54;69.00;;;7.30;;
4049;SDS011;2039;50.894;6.888;2023-05-07T13:38:35;71.10;;;10.30;;
4049;SDS011;2039;50.894;6.888;2023-05-07T13:41:01;73.67;;;13.90;;
4049;SDS011;2039;50.894;6.888;2023-05-07T13:44:48;70.57;;;18.57;;
4049;SDS011;2039;50.894;6.888;2023-05-07T13:46:43;73.27;;;19.60;;
4049;SDS011;2039;50.894;6.888;2023-05-07T13:49:13;71.13;;;18.63;;
4049;SDS011;2039;50.894;6.888;2023-05-07T13:51:42;71.20;;;18.20;;
4049;SDS011;2039;50.894;6.888;2023-05-07T13:54:08;70.10;;;18.07;;
4049;SDS011;2039;50.894;6.888;2023-05-07T13:56:37;73.00;;;19.93;;
4049;SDS011;2039;50.894;6.888;2023-05-07T13:59:42;71.37;;;18.20;;
4049;SDS011;2039;50.894;6.888;2023-05-07T14:02:06;71.23;;;16.57;;
4049;SDS011;2039;50.894;6.888;2023-05-07T14:04:38;73.90;;;12.73;;
4049;SDS011;2039;50.894;6.888;2023-05-07T14:07:04;69.03;;;11.33;;
4049;SDS011;2039;50.894;6.888;2023-05-07T14:09:41;71.57;;;14.80;;
4049;SDS011;2039;50.894;6.888;2023-05-07T14:12:16;70.43;;;13.37;;
4049;SDS011;2039;50.894;6.888;2023-05-07T14:17:53;72.70;;;19.20;;
4049;SDS011;2039;50.894;6.888;2023-05-07T14:20:25;72.37;;;19.47;;
4049;SDS011;2039;50.894;6.888;2023-05-07T14:22:58;70.13;;;15.10;;
4049;SDS011;2039;50.894;6.888;2023-05-07T14:25:40;69.53;;;13.20;;
4049;SDS011;2039;50.894;6.888;2023-05-07T14:28:21;70.67;;;12.70;;
4049;SDS011;2039;50.894;6.888;2023-05-07T14:30:57;70.57;;;14.83;;
4049;SDS011;2039;50.894;6.888;2023-05-07T14:33:23;71.30;;;16.93;;
4049;SDS011;2039;50.894;6.888;2023-05-07T14:36:09;72.63;;;17.97;;
4049;SDS011;2039;50.894;6.888;2023-05-07T14:38:38;70.50;;;13.00;;
4049;SDS011;2039;50.894;6.888;2023-05-07T14:41:10;70.47;;;11.97;;
4049;SDS011;2039;50.894;6.888;2023-05-07T14:43:38;69.20;;;11.10;;
4049;SDS011;2039;50.894;6.888;2023-05-07T14:46:06;73.80;;;9.50;;
4049;SDS011;2039;50.894;6.888;2023-05-07T14:49:38;69.00;;;6.90;;
4049;SDS011;2039;50.894;6.888;2023-05-07T14:52:27;68.73;;;6.47;;
4049;SDS011;2039;50.894;6.888;2023-05-07T14:55:03;69.37;;;7.53;;
4049;SDS011;2039;50.894;6.888;2023-05-07T15:07:37;67.10;;;6.00;;
4049;SDS011;2039;50.894;6.888;2023-05-07T15:24:12;66.37;;;8.03;;
4049;SDS011;2039;50.894;6.888;2023-05-07T15:27:07;66.77;;;7.40;;
4049;SDS011;2039;50.894;6.888;2023-05-07T15:30:34;67.20;;;7.73;;
4049;SDS011;2039;50.894;6.888;2023-05-07T15:40:32;68.40;;;7.20;;
4049;SDS011;2039;50.894;6.888;2023-05-07T15:43:50;66.90;;;6.80;;
4049;SDS011;2039;50.894;6.888;2023-05-07T15:46:44;71.87;;;8.33;;
4049;SDS011;2039;50.894;6.888;2023-05-07T15:52:56;72.80;;;11.83;;
4049;SDS011;2039;50.894;6.888;2023-05-07T15:58:45;73.80;;;18.80;;
4049;SDS011;2039;50.894;6.888;2023-05-07T16:01:35;69.77;;;18.60;;
4049;SDS011;2039;50.894;6.888;2023-05-07T16:08:19;68.67;;;13.70;;
4049;SDS011;2039;50.894;6.888;2023-05-07T16:11:29;69.37;;;14.13;;
4049;SDS011;2039;50.894;6.888;2023-05-07T16:14:42;69.70;;;15.60;;
4049;SDS011;2039;50.894;6.888;2023-05-07T16:24:58;67.70;;;8.97;;
4049;SDS011;2039;50.894;6.888;2023-05-07T16:31:26;68.17;;;6.80;;
4049;SDS011;2039;50.894;6.888;2023-05-07T16:37:56;65.20;;;4.00;;
4049;SDS011;2039;50.894;6.888;2023-05-07T16:40:40;65.93;;;5.03;;
4049;SDS011;2039;50.894;6.888;2023-05-07T16:43:13;67.30;;;6.30;;
4049;SDS011;2039;50.894;6.888;2023-05-07T16:55:12;66.40;;;7.07;;
4049;SDS011;2039;50.894;6.888;2023-05-07T17:02:17;67.50;;;8.97;;
4049;SDS011;2039;50.894;6.888;2023-05-07T17:05:25;68.00;;;11.57;;
4049;SDS011;2039;50.894;6.888;2023-05-07T17:11:04;69.90;;;17.07;;
4049;SDS011;2039;50.894;6.888;2023-05-07T17:16:57;68.50;;;16.33;;
4049;SDS011;2039;50.894;6.888;2023-05-07T17:19:58;71.17;;;20.93;;
4049;SDS011;2039;50.894;6.888;2023-05-07T17:22:43;68.67;;;15.93;;
4049;SDS011;2039;50.894;6.888;2023-05-07T17:25:18;71.97;;;19.10;;
4049;SDS011;2039;50.894;6.888;2023-05-07T17:27:47;69.73;;;18.77;;
4049;SDS011;2039;50.894;6.888;2023-05-07T17:30:16;66.93;;;11.30;;
4049;SDS011;2039;50.894;6.888;2023-05-07T17:32:45;69.07;;;15.90;;
4049;SDS011;2039;50.894;6.888;2023-05-07T17:38:26;69.77;;;16.20;;
4049;SDS011;2039;50.894;6.888;2023-05-07T17:40:54;71.50;;;14.20;;
4049;SDS011;2039;50.894;6.888;2023-05-07T17:43:26;68.70;;;8.90;;
4049;SDS011;2039;50.894;6.888;2023-05-07T17:46:11;66.83;;;7.07;;
4049;SDS011;2039;50.894;6.888;2023-05-07T17:48:40;67.87;;;6.30;;
4049;SDS011;2039;50.894;6.888;2023-05-07T17:54:00;73.70;;;6.93;;
4049;SDS011;2039;50.894;6.888;2023-05-07T17:57:09;69.40;;;6.20;;
4049;SDS011;2039;50.894;6.888;2023-05-07T17:59:28;69.10;;;6.07;;
4049;SDS011;2039;50.894;6.888;2023-05-07T18:02:03;71.33;;;6.43;;
4049;SDS011;2039;50.894;6.888;2023-05-07T18:04:39;66.23;;;6.00;;
4049;SDS011;2039;50.894;6.888;2023-05-07T18:07:33;66.77;;;6.13;;
4049;SDS011;2039;50.894;6.888;2023-05-07T18:13:37;67.30;;;5.60;;
4049;SDS011;2039;50.894;6.888;2023-05-07T18:16:11;66.60;;;5.37;;
4049;SDS011;2039;50.894;6.888;2023-05-07T18:19:05;66.60;;;5.40;;
4049;SDS011;2039;50.894;6.888;2023-05-07T18:21:55;70.27;;;5.20;;
4049;SDS011;2039;50.894;6.888;2023-05-07T18:25:06;67.17;;;5.60;;
4049;SDS011;2039;50.894;6.888;2023-05-07T18:27:51;66.90;;;5.83;;
4049;SDS011;2039;50.894;6.888;2023-05-07T18:31:01;67.60;;;5.70;;
4049;SDS011;2039;50.894;6.888;2023-05-07T18:37:22;67.30;;;5.13;;
4049;SDS011;2039;50.894;6.888;2023-05-07T18:39:58;69.10;;;5.70;;
4049;SDS011;2039;50.894;6.888;2023-05-07T18:48:48;67.67;;;8.10;;
4049;SDS011;2039;50.894;6.888;2023-05-07T18:51:37;69.47;;;10.03;;
4049;SDS011;2039;50.894;6.888;2023-05-07T18:54:33;69.20;;;14.97;;
4049;SDS011;2039;50.894;6.888;2023-05-07T18:57:09;68.17;;;11.97;;
4049;SDS011;2039;50.894;6.888;2023-05-07T19:00:02;70.67;;;18.77;;
4049;SDS011;2039;50.894;6.888;2023-05-07T19:02:46;73.97;;;23.80;;
4049;SDS011;2039;50.894;6.888;2023-05-07T19:08:02;77.33;;;31.83;;
4049;SDS011;2039;50.894;6.888;2023-05-07T19:10:44;79.07;;;36.30;;
4049;SDS011;2039;50.894;6.888;2023-05-07T19:13:48;77.57;;;36.37;;
4049;SDS011;2039;50.894;6.888;2023-05-07T19:16:51;81.27;;;39.30;;
4049;SDS011;2039;50.894;6.888;2023-05-07T19:20:03;76.60;;;34.73;;
4049;SDS011;2039;50.894;6.888;2023-05-07T19:23:07;77.90;;;33.67;;
4049;SDS011;2039;50.894;6.888;2023-05-07T19:26:04;80.90;;;34.47;;
4049;SDS011;2039;50.894;6.888;2023-05-07T19:29:08;78.33;;;24.50;;
4049;SDS011;2039;50.894;6.888;2023-05-07T19:32:03;75.67;;;28.03;;
4049;SDS011;2039;50.894;6.888;2023-05-07T19:35:18;76.20;;;21.93;;
4049;SDS011;2039;50.894;6.888;2023-05-07T19:38:11;75.90;;;19.33;;
4049;SDS011;2039;50.894;6.888;2023-05-07T19:40:51;72.70;;;18.00;;
4049;SDS011;2039;50.894;6.888;2023-05-07T19:43:19;72.70;;;16.83;;
4049;SDS011;2039;50.894;6.888;2023-05-07T19:46:16;72.07;;;16.63;;
4049;SDS011;2039;50.894;6.888;2023-05-07T19:49:07;72.30;;;14.90;;
4049;SDS011;2039;50.894;6.888;2023-05-07T19:52:02;72.07;;;16.63;;
4049;SDS011;2039;50.894;6.888;2023-05-07T20:01:42;74.00;;;14.73;;
4049;SDS011;2039;50.894;6.888;2023-05-07T20:05:03;71.63;;;13.20;;
4049;SDS011;2039;50.894;6.888;2023-05-07T20:07:51;73.27;;;15.00;;
4049;SDS011;2039;50.894;6.888;2023-05-07T20:10:57;74.47;;;15.40;;
4049;SDS011;2039;50.894;6.888;2023-05-07T20:23:24;73.40;;;14.67;;
4049;SDS011;2039;50.894;6.888;2023-05-07T20:32:10;73.13;;;13.90;;
4049;SDS011;2039;50.894;6.888;2023-05-07T20:38:02;75.10;;;14.20;;
4049;SDS011;2039;50.894;6.888;2023-05-07T20:54:34;69.93;;;11.60;;
4049;SDS011;2039;50.894;6.888;2023-05-07T20:57:33;69.70;;;10.90;;
4049;SDS011;2039;50.894;6.888;2023-05-07T21:07:58;69.50;;;9.20;;
4049;SDS011;2039;50.894;6.888;2023-05-07T21:11:23;67.70;;;9.00;;
4049;SDS011;2039;50.894;6.888;2023-05-07T21:14:29;72.43;;;10.07;;
4049;SDS011;2039;50.894;6.888;2023-05-07T21:21:25;70.03;;;11.23;;
4049;SDS011;2039;50.894;6.888;2023-05-07T21:23:51;68.70;;;11.10;;
4049;SDS011;2039;50.894;6.888;2023-05-07T21:26:26;70.97;;;10.17;;
4049;SDS011;2039;50.894;6.888;2023-05-07T21:28:52;69.90;;;11.20;;
4049;SDS011;2039;50.894;6.888;2023-05-07T21:31:18;71.30;;;10.63;;
4049;SDS011;2039;50.894;6.888;2023-05-07T21:33:44;71.17;;;11.70;;
4049;SDS011;2039;50.894;6.888;2023-05-07T21:36:10;68.60;;;10.40;;
4049;SDS011;2039;50.894;6.888;2023-05-07T21:38:36;70.23;;;11.40;;
4049;SDS011;2039;50.894;6.888;2023-05-07T21:41:03;71.77;;;11.20;;
4049;SDS011;2039;50.894;6.888;2023-05-07T21:43:29;73.10;;;11.50;;
4049;SDS011;2039;50.894;6.888;2023-05-07T21:45:55;71.07;;;12.30;;
4049;SDS011;2039;50.894;6.888;2023-05-07T21:48:22;71.33;;;11.97;;
4049;SDS011;2039;50.894;6.888;2023-05-07T21:50:48;72.90;;;12.03;;
4049;SDS011;2039;50.894;6.888;2023-05-07T21:53:27;77.57;;;10.70;;
4049;SDS011;2039;50.894;6.888;2023-05-07T21:55:53;70.00;;;10.40;;
4049;SDS011;2039;50.894;6.888;2023-05-07T21:58:18;69.97;;;10.07;;
4049;SDS011;2039;50.894;6.888;2023-05-07T22:00:44;69.90;;;9.70;;
4049;SDS011;2039;50.894;6.888;2023-05-07T22:03:10;68.47;;;9.70;;
4049;SDS011;2039;50.894;6.888;2023-05-07T22:05:35;68.33;;;9.77;;
4049;SDS011;2039;50.894;6.888;2023-05-07T22:08:01;70.27;;;10.40;;
4049;SDS011;2039;50.894;6.888;2023-05-07T22:10:27;68.20;;;9.33;;
4049;SDS011;2039;50.894;6.888;2023-05-07T22:12:53;68.90;;;9.27;;